Time;durP1;ratioP1;P1;durP2;ratioP2;P2;SDS_P1;SDS_P2;PMS_P1;PMS_P2;Temp;Humidity;BMP_temperature;BMP_pressure;BME280_temperature;BME280_humidity;BME280_pressure;Samples;Min_cycle;Max_cycle;Signal;HPM_P1;HPM_P2
2023/03/20 00:01:21;;;;;;;76.27;30.20;;;8.90;99.90;;;;;;5032402;28;20507;-48
2023/03/20 00:03:47;;;;;;;75.37;28.60;;;8.90;99.90;;;;;;5032242;28;20416;-48
2023/03/20 00:06:20;;;;;;;74.97;28.27;;;8.90;99.90;;;;;;5031613;28;20418;-49
2023/03/20 00:08:48;;;;;;;72.60;27.37;;;8.80;99.90;;;;;;5031962;28;20412;-48
2023/03/20 00:11:25;;;;;;;98.20;31.23;;;8.80;99.90;;;;;;5031691;28;20425;-48
2023/03/20 00:13:52;;;;;;;86.77;29.23;;;8.80;99.90;;;;;;5032003;28;20460;-49
2023/03/20 00:16:30;;;;;;;84.30;30.17;;;8.80;99.90;;;;;;5032421;28;20790;-48
2023/03/20 00:18:56;;;;;;;87.87;31.93;;;8.90;99.90;;;;;;5031647;28;20494;-51
2023/03/20 00:21:22;;;;;;;89.50;30.20;;;8.90;99.90;;;;;;5031434;28;20434;-49
2023/03/20 00:23:48;;;;;;;73.43;28.83;;;8.90;99.90;;;;;;5031749;28;20830;-48
2023/03/20 00:26:17;;;;;;;79.53;28.90;;;8.90;99.90;;;;;;5031920;28;20182;-48
2023/03/20 00:28:45;;;;;;;75.00;29.10;;;8.80;99.90;;;;;;5031936;28;20186;-49
2023/03/20 00:31:24;;;;;;;70.20;27.67;;;8.80;99.90;;;;;;5031746;28;21445;-48
2023/03/20 00:33:51;;;;;;;74.13;28.67;;;8.80;99.90;;;;;;5031018;28;20463;-49
2023/03/20 00:36:16;;;;;;;85.67;29.73;;;8.80;99.90;;;;;;5032196;28;20420;-48
2023/03/20 00:38:42;;;;;;;70.53;27.77;;;8.80;99.90;;;;;;5031510;28;20812;-48
2023/03/20 00:41:37;;;;;;;79.67;28.23;;;8.80;99.90;;;;;;5031511;28;20189;-47
2023/03/20 00:44:24;;;;;;;88.43;30.50;;;8.80;99.90;;;;;;5031807;28;20310;-47
2023/03/20 00:46:54;;;;;;;71.50;27.97;;;8.80;99.90;;;;;;5031664;28;20514;-47
2023/03/20 00:49:23;;;;;;;83.30;30.77;;;8.80;99.90;;;;;;5035762;28;20471;-48
2023/03/20 00:51:49;;;;;;;70.17;28.50;;;8.80;99.90;;;;;;5035682;28;20409;-48
2023/03/20 00:54:16;;;;;;;68.67;28.63;;;8.80;99.90;;;;;;5035188;28;20424;-48
2023/03/20 00:56:45;;;;;;;80.47;29.57;;;8.80;99.90;;;;;;5034592;28;20193;-48
2023/03/20 00:59:23;;;;;;;86.00;29.30;;;8.80;99.90;;;;;;5035303;28;20475;-48
2023/03/20 01:01:49;;;;;;;87.50;28.90;;;8.80;99.90;;;;;;5035310;28;20420;-48
2023/03/20 01:04:18;;;;;;;75.13;29.70;;;8.80;99.90;;;;;;5034476;28;20920;-48
2023/03/20 01:06:44;;;;;;;78.17;30.23;;;8.80;99.90;;;;;;5035194;28;20426;-48
2023/03/20 01:09:10;;;;;;;87.83;29.83;;;8.80;99.90;;;;;;5035115;28;20424;-49
2023/03/20 01:11:37;;;;;;;70.10;27.90;;;8.80;99.90;;;;;;5034302;28;21094;-48
2023/03/20 01:14:03;;;;;;;76.53;29.63;;;8.80;99.90;;;;;;5035138;28;20198;-48
2023/03/20 01:16:29;;;;;;;77.97;28.47;;;8.80;99.90;;;;;;5034940;28;20424;-49
2023/03/20 01:18:54;;;;;;;64.90;26.77;;;8.80;99.90;;;;;;5034508;28;20502;-49
2023/03/20 01:21:20;;;;;;;61.77;25.33;;;8.80;99.90;;;;;;5035149;28;20194;-50
2023/03/20 01:23:48;;;;;;;75.80;29.40;;;8.80;99.90;;;;;;5035041;28;20204;-50
2023/03/20 01:26:26;;;;;;;76.17;28.77;;;8.80;99.90;;;;;;5034862;28;20597;-48
2023/03/20 01:28:51;;;;;;;75.40;28.43;;;8.90;99.90;;;;;;5034551;28;20503;-49
2023/03/20 01:31:17;;;;;;;75.87;28.40;;;8.90;99.90;;;;;;5034741;28;20421;-48
2023/03/20 01:33:44;;;;;;;66.13;27.47;;;8.90;99.90;;;;;;5034558;28;20239;-48
2023/03/20 01:36:11;;;;;;;67.60;27.20;;;8.90;99.90;;;;;;5034088;28;20432;-49
2023/03/20 01:38:37;;;;;;;66.20;26.50;;;8.90;99.90;;;;;;5034602;28;20417;-48
2023/03/20 01:41:16;;;;;;;78.00;28.80;;;8.90;99.90;;;;;;5034041;28;20417;-50
2023/03/20 01:43:44;;;;;;;83.77;29.37;;;8.90;99.90;;;;;;5033677;28;20505;-50
2023/03/20 01:46:10;;;;;;;72.43;28.10;;;8.90;99.90;;;;;;5034399;28;20861;-49
2023/03/20 01:48:59;;;;;;;80.07;29.00;;;8.90;99.90;;;;;;5034211;28;20508;-49
2023/03/20 01:51:31;;;;;;;74.50;27.30;;;8.90;99.90;;;;;;5034089;28;20170;-49
2023/03/20 01:53:57;;;;;;;78.13;28.77;;;8.90;99.90;;;;;;5034622;28;20452;-49
2023/03/20 01:56:23;;;;;;;80.80;27.53;;;8.90;99.90;;;;;;5034014;28;20994;-49
2023/03/20 01:59:25;;;;;;;76.57;28.03;;;8.90;99.90;;;;;;5033212;28;20704;-49
2023/03/20 02:01:51;;;;;;;74.83;27.60;;;8.90;99.90;;;;;;5034161;28;20188;-51
2023/03/20 02:04:20;;;;;;;71.47;27.97;;;8.90;99.90;;;;;;5034261;28;20835;-49
2023/03/20 02:06:46;;;;;;;76.17;27.83;;;8.90;99.90;;;;;;5034209;28;20425;-49
2023/03/20 02:09:11;;;;;;;71.73;26.13;;;8.90;99.90;;;;;;5034066;28;20428;-49
2023/03/20 02:11:39;;;;;;;60.03;24.47;;;8.80;99.90;;;;;;5033398;28;20183;-50
2023/03/20 02:14:05;;;;;;;83.47;27.03;;;8.70;99.90;;;;;;5034015;28;20181;-49
2023/03/20 02:16:31;;;;;;;71.37;26.20;;;8.70;99.90;;;;;;5033939;28;20506;-49
2023/03/20 02:18:57;;;;;;;74.30;26.17;;;8.60;99.90;;;;;;5033949;28;20996;-49
2023/03/20 02:21:51;;;;;;;68.40;25.03;;;8.50;99.90;;;;;;5033492;28;20280;-48
2023/03/20 02:24:48;;;;;;;72.40;23.33;;;8.50;99.90;;;;;;5031165;28;21019;-49
2023/03/20 02:27:36;;;;;;;72.57;23.00;;;8.50;99.90;;;;;;5033342;28;20964;-49
2023/03/20 02:30:30;;;;;;;73.23;25.63;;;8.40;99.90;;;;;;5033562;28;20407;-49
2023/03/20 02:33:21;;;;;;;66.83;25.43;;;8.30;99.90;;;;;;5033315;28;20460;-49
2023/03/20 02:36:11;;;;;;;69.20;23.00;;;8.30;99.90;;;;;;5028086;28;20807;-49
2023/03/20 02:38:50;;;;;;;56.53;22.63;;;8.30;99.90;;;;;;5033690;28;20401;-49
2023/03/20 02:41:38;;;;;;;53.60;21.77;;;8.20;99.90;;;;;;5033481;28;20425;-49
2023/03/20 02:44:16;;;;;;;46.67;18.73;;;8.20;99.90;;;;;;5032855;28;20546;-48
2023/03/20 02:46:58;;;;;;;43.30;14.80;;;8.10;99.90;;;;;;5033384;28;20420;-49
2023/03/20 02:49:43;;;;;;;36.77;14.40;;;8.10;99.90;;;;;;5032993;28;20414;-49
2023/03/20 02:52:24;;;;;;;43.23;14.97;;;8.00;99.90;;;;;;5033228;28;20491;-48
2023/03/20 02:55:00;;;;;;;35.70;14.00;;;8.00;99.90;;;;;;5033459;28;20416;-49
2023/03/20 02:57:51;;;;;;;36.00;14.50;;;7.90;99.90;;;;;;5033311;28;20499;-48
2023/03/20 03:00:28;;;;;;;34.87;12.77;;;7.90;99.90;;;;;;5032778;28;20400;-48
2023/03/20 03:03:21;;;;;;;29.20;11.80;;;7.80;99.90;;;;;;5032867;28;20773;-49
2023/03/20 03:06:10;;;;;;;34.83;12.30;;;7.80;99.90;;;;;;5033130;28;20873;-48
2023/03/20 03:08:42;;;;;;;33.60;13.00;;;7.80;99.90;;;;;;5032753;28;20405;-49
2023/03/20 03:11:08;;;;;;;26.27;11.83;;;7.70;99.90;;;;;;5032688;28;20429;-48
2023/03/20 03:13:39;;;;;;;31.60;12.00;;;7.70;99.90;;;;;;5032129;28;20455;-48
2023/03/20 03:16:26;;;;;;;31.90;12.40;;;7.70;99.90;;;;;;5033140;28;20428;-49
2023/03/20 03:19:06;;;;;;;33.33;11.40;;;7.70;99.90;;;;;;5032793;28;20441;-51
2023/03/20 03:21:33;;;;;;;28.70;11.87;;;7.70;99.90;;;;;;5032336;28;20440;-48
2023/03/20 03:24:00;;;;;;;32.20;11.17;;;7.70;99.90;;;;;;5032336;28;20928;-48
2023/03/20 03:26:29;;;;;;;27.50;11.87;;;7.70;99.90;;;;;;5031546;28;21268;-48
2023/03/20 03:28:58;;;;;;;25.43;10.73;;;7.70;99.90;;;;;;5032611;28;20408;-48
2023/03/20 03:31:24;;;;;;;26.07;11.27;;;7.60;99.90;;;;;;5032046;28;20511;-49
2023/03/20 03:33:54;;;;;;;26.73;10.40;;;7.70;99.90;;;;;;5032826;28;20466;-49
2023/03/20 03:36:25;;;;;;;27.47;11.30;;;7.60;99.90;;;;;;5032338;28;20467;-48
2023/03/20 03:39:10;;;;;;;27.77;12.00;;;7.60;99.90;;;;;;5032103;28;20415;-51
2023/03/20 03:41:50;;;;;;;26.17;10.50;;;7.60;99.90;;;;;;5032285;28;20751;-48
2023/03/20 03:44:28;;;;;;;24.93;10.67;;;7.60;99.90;;;;;;5032359;28;20565;-48
2023/03/20 03:47:06;;;;;;;24.60;10.83;;;7.60;99.90;;;;;;5031848;28;20409;-48
2023/03/20 03:49:36;;;;;;;22.07;10.27;;;7.60;99.90;;;;;;5032324;28;20462;-48
2023/03/20 03:52:07;;;;;;;26.50;10.10;;;7.60;99.90;;;;;;5032099;28;20504;-48
2023/03/20 03:54:44;;;;;;;22.50;9.43;;;7.50;99.90;;;;;;5031689;28;20425;-48
2023/03/20 03:57:15;;;;;;;24.70;11.03;;;7.50;99.90;;;;;;5031655;28;20877;-48
2023/03/20 03:59:43;;;;;;;25.10;10.40;;;7.50;99.90;;;;;;5032230;28;20397;-48
2023/03/20 04:02:09;;;;;;;21.60;11.00;;;7.60;99.90;;;;;;5032182;28;20425;-48
2023/03/20 04:04:39;;;;;;;27.27;10.87;;;7.60;99.90;;;;;;5031733;28;21113;-48
2023/03/20 04:07:04;;;;;;;23.57;9.93;;;7.60;99.90;;;;;;5031880;28;20425;-48
2023/03/20 04:09:30;;;;;;;22.10;9.30;;;7.60;99.90;;;;;;5031751;28;20416;-48
2023/03/20 04:11:56;;;;;;;27.83;11.40;;;7.60;99.90;;;;;;5031601;28;20180;-48
2023/03/20 04:14:22;;;;;;;24.90;10.93;;;7.50;99.90;;;;;;5031683;28;20526;-51
2023/03/20 04:16:47;;;;;;;24.40;10.33;;;7.60;99.90;;;;;;5032045;28;20193;-49
2023/03/20 04:19:13;;;;;;;25.37;10.50;;;7.60;99.90;;;;;;5031619;28;20178;-48
2023/03/20 04:21:39;;;;;;;28.23;11.10;;;7.60;99.90;;;;;;5031525;28;20218;-49
2023/03/20 04:24:05;;;;;;;25.00;11.53;;;7.60;99.90;;;;;;5036009;28;20190;-48
2023/03/20 04:26:31;;;;;;;23.43;11.00;;;7.60;99.90;;;;;;5035652;28;20440;-48
2023/03/20 04:28:56;;;;;;;21.47;10.93;;;7.60;99.90;;;;;;5035348;28;20980;-48
2023/03/20 04:31:22;;;;;;;24.53;10.90;;;7.60;99.90;;;;;;5035932;28;20200;-50
2023/03/20 04:33:48;;;;;;;27.73;11.20;;;7.60;99.90;;;;;;5035714;28;20289;-48
2023/03/20 04:36:13;;;;;;;25.27;10.77;;;7.70;99.90;;;;;;5036006;28;20586;-48
2023/03/20 04:38:40;;;;;;;27.60;11.40;;;7.70;99.90;;;;;;5035404;28;20193;-49
2023/03/20 04:41:06;;;;;;;25.07;11.33;;;7.70;99.90;;;;;;5035211;28;20188;-48
2023/03/20 04:43:32;;;;;;;25.60;11.37;;;7.70;99.90;;;;;;5035363;28;20823;-48
2023/03/20 04:45:58;;;;;;;28.03;11.57;;;7.60;99.90;;;;;;5035255;28;20413;-48
2023/03/20 04:48:23;;;;;;;22.60;11.03;;;7.70;99.90;;;;;;5035151;28;20182;-48
2023/03/20 04:50:49;;;;;;;25.83;11.50;;;7.60;99.90;;;;;;5035569;28;20182;-48
2023/03/20 04:53:16;;;;;;;25.77;11.60;;;7.60;99.90;;;;;;5035408;28;20251;-48
2023/03/20 04:55:42;;;;;;;27.70;12.63;;;7.60;99.90;;;;;;5035233;28;20424;-48
2023/03/20 04:58:08;;;;;;;23.20;11.10;;;7.60;99.90;;;;;;5034964;28;20440;-48
2023/03/20 05:00:33;;;;;;;27.50;10.40;;;7.60;99.90;;;;;;5035344;28;21004;-48
2023/03/20 05:03:00;;;;;;;24.30;10.50;;;7.60;99.90;;;;;;5035324;28;20189;-49
2023/03/20 05:05:26;;;;;;;24.00;10.27;;;7.60;99.90;;;;;;5035178;28;20276;-49
2023/03/20 05:07:51;;;;;;;21.80;9.30;;;7.60;99.90;;;;;;5034584;28;20504;-51
2023/03/20 05:10:18;;;;;;;19.33;9.70;;;7.50;99.90;;;;;;5035345;28;20258;-49
2023/03/20 05:12:44;;;;;;;20.50;8.90;;;7.50;99.90;;;;;;5034366;28;20736;-49
2023/03/20 05:15:10;;;;;;;19.10;8.90;;;7.50;99.90;;;;;;5034897;28;20544;-49
2023/03/20 05:17:36;;;;;;;16.73;8.20;;;7.60;99.90;;;;;;5034823;28;20222;-49
2023/03/20 05:20:01;;;;;;;21.03;9.43;;;7.50;99.90;;;;;;5035143;28;20443;-49
2023/03/20 05:22:27;;;;;;;15.50;8.70;;;7.50;99.90;;;;;;5034938;28;20636;-49
2023/03/20 05:24:52;;;;;;;15.20;8.97;;;7.50;99.90;;;;;;5034943;28;20666;-48
2023/03/20 05:27:18;;;;;;;16.70;8.70;;;7.50;99.90;;;;;;5034602;28;20202;-49
2023/03/20 05:29:44;;;;;;;15.37;8.10;;;7.50;99.90;;;;;;5034130;28;20266;-49
2023/03/20 05:32:11;;;;;;;20.07;10.00;;;7.50;99.90;;;;;;5034404;28;20217;-50
2023/03/20 05:34:37;;;;;;;17.10;8.90;;;7.50;99.90;;;;;;5033069;28;20216;-49
2023/03/20 05:37:03;;;;;;;16.47;9.10;;;7.50;99.90;;;;;;5034605;28;20424;-49
2023/03/20 05:39:28;;;;;;;21.90;9.00;;;7.50;99.90;;;;;;5034110;28;20190;-49
2023/03/20 05:41:54;;;;;;;22.17;10.93;;;7.50;99.90;;;;;;5034509;28;20650;-49
2023/03/20 05:44:20;;;;;;;27.10;11.47;;;7.50;99.90;;;;;;5034667;28;20233;-49
2023/03/20 05:46:45;;;;;;;20.77;11.90;;;7.40;99.90;;;;;;5034553;28;20522;-49
2023/03/20 05:49:11;;;;;;;27.00;12.77;;;7.40;99.90;;;;;;5033817;28;21196;-49
2023/03/20 05:51:37;;;;;;;23.97;11.87;;;7.50;99.90;;;;;;5034323;28;20182;-49
2023/03/20 05:54:02;;;;;;;31.43;13.47;;;7.40;99.90;;;;;;5033951;28;20205;-49
2023/03/20 05:56:28;;;;;;;26.43;13.53;;;7.50;99.90;;;;;;5034168;28;20195;-49
2023/03/20 05:58:54;;;;;;;28.10;12.37;;;7.50;99.90;;;;;;5034199;28;20185;-49
2023/03/20 06:01:22;;;;;;;30.50;12.80;;;7.40;99.90;;;;;;5033611;28;20228;-49
2023/03/20 06:03:48;;;;;;;28.20;12.90;;;7.50;99.90;;;;;;5034898;28;20194;-49
2023/03/20 06:06:14;;;;;;;23.83;12.07;;;7.40;99.90;;;;;;5033287;28;20562;-49
2023/03/20 06:08:41;;;;;;;29.00;12.30;;;7.50;99.90;;;;;;5033765;28;20576;-49
2023/03/20 06:11:07;;;;;;;22.50;12.03;;;7.50;99.90;;;;;;5033412;28;20418;-48
2023/03/20 06:13:33;;;;;;;25.80;12.20;;;7.50;99.90;;;;;;5034122;28;20457;-49
2023/03/20 06:15:58;;;;;;;20.50;11.13;;;7.60;99.90;;;;;;5033729;28;20792;-49
2023/03/20 06:18:24;;;;;;;24.40;12.43;;;7.60;99.90;;;;;;5033126;28;20192;-50
2023/03/20 06:20:54;;;;;;;22.33;10.50;;;7.60;99.90;;;;;;5033684;28;20178;-49
2023/03/20 06:23:20;;;;;;;20.87;11.80;;;7.60;99.90;;;;;;5034243;28;20198;-49
2023/03/20 06:25:46;;;;;;;26.67;10.97;;;7.70;99.90;;;;;;5033289;28;20504;-49
2023/03/20 06:28:12;;;;;;;22.27;11.57;;;7.70;99.90;;;;;;5033638;28;20504;-49
2023/03/20 06:30:37;;;;;;;25.33;10.07;;;7.70;99.90;;;;;;5033247;28;20417;-49
2023/03/20 06:33:05;;;;;;;18.90;10.40;;;7.70;99.90;;;;;;5033556;28;20211;-49
2023/03/20 06:35:32;;;;;;;19.87;10.10;;;7.80;99.90;;;;;;5033414;28;20755;-48
2023/03/20 06:37:58;;;;;;;19.13;10.37;;;7.80;99.90;;;;;;5032868;28;20416;-48
2023/03/20 06:40:24;;;;;;;16.93;9.50;;;7.80;99.90;;;;;;5033488;28;20977;-49
2023/03/20 06:42:50;;;;;;;16.87;9.23;;;7.90;99.90;;;;;;5033567;28;20218;-48
2023/03/20 06:45:15;;;;;;;20.10;10.23;;;7.90;99.90;;;;;;5032475;28;20811;-50
2023/03/20 06:47:41;;;;;;;17.10;9.30;;;7.90;86.40;;;;;;5033115;28;20248;-49
2023/03/20 06:50:07;;;;;;;20.00;9.77;;;7.90;67.80;;;;;;5033420;28;20182;-49
2023/03/20 06:52:34;;;;;;;14.97;8.57;;;8.00;43.20;;;;;;5032776;28;20252;-49
2023/03/20 06:55:00;;;;;;;33.80;9.57;;;8.00;24.30;;;;;;5033186;28;20432;-50
2023/03/20 06:57:25;;;;;;;17.23;9.00;;;8.00;16.00;;;;;;5032714;28;20408;-49
2023/03/20 06:59:51;;;;;;;16.10;8.30;;;8.10;1.00;;;;;;5032809;28;20243;-52
2023/03/20 07:02:17;;;;;;;13.03;7.83;;;8.10;1.00;;;;;;5033104;28;20198;-49
2023/03/20 07:04:42;;;;;;;16.93;8.20;;;8.10;1.00;;;;;;5033042;28;20186;-50
2023/03/20 07:07:08;;;;;;;12.93;7.80;;;8.10;1.00;;;;;;5032867;28;20186;-50
2023/03/20 07:09:33;;;;;;;18.03;8.20;;;8.10;1.00;;;;;;5032470;28;20638;-50
2023/03/20 07:11:59;;;;;;;21.10;9.00;;;8.10;1.00;;;;;;5032257;28;20223;-49
2023/03/20 07:14:25;;;;;;;15.90;7.97;;;8.10;1.00;;;;;;5032510;28;20618;-49
2023/03/20 07:16:51;;;;;;;14.73;7.90;;;8.10;1.00;;;;;;5032854;28;20428;-50
2023/03/20 07:19:18;;;;;;;15.10;8.30;;;8.10;1.00;;;;;;5032274;28;20608;-50
2023/03/20 07:21:44;;;;;;;16.27;8.67;;;8.20;1.00;;;;;;5031746;28;20749;-50
2023/03/20 07:24:09;;;;;;;15.40;7.97;;;8.20;1.00;;;;;;5031286;28;20432;-50
2023/03/20 07:26:35;;;;;;;11.13;7.97;;;8.20;1.00;;;;;;5030992;28;20232;-50
2023/03/20 07:29:01;;;;;;;14.83;7.87;;;8.20;1.00;;;;;;5031902;28;20255;-50
2023/03/20 07:31:28;;;;;;;12.40;7.30;;;8.30;1.00;;;;;;5032102;28;21058;-50
2023/03/20 07:33:54;;;;;;;13.47;7.30;;;8.30;1.00;;;;;;5032075;28;20238;-50
2023/03/20 07:36:20;;;;;;;11.93;7.83;;;8.30;1.00;;;;;;5032403;28;20416;-50
2023/03/20 07:38:46;;;;;;;16.00;8.87;;;8.30;1.00;;;;;;5031872;28;20186;-50
2023/03/20 07:41:11;;;;;;;14.33;7.90;;;8.30;1.00;;;;;;5032395;28;20309;-50
2023/03/20 07:43:37;;;;;;;16.87;8.03;;;8.30;1.00;;;;;;5032386;28;20571;-50
2023/03/20 07:46:07;;;;;;;16.47;8.03;;;8.30;1.00;;;;;;5032000;28;20706;-50
2023/03/20 07:48:34;;;;;;;53.37;29.13;;;8.40;1.00;;;;;;5031747;28;20190;-50
2023/03/20 07:51:00;;;;;;;15.33;8.53;;;8.40;1.00;;;;;;5031907;28;20928;-50
2023/03/20 07:53:26;;;;;;;14.03;8.00;;;8.50;1.00;;;;;;5032161;28;20460;-50
2023/03/20 07:55:51;;;;;;;22.10;8.87;;;8.60;99.90;;;;;;5032042;28;20417;-54
2023/03/20 07:58:17;;;;;;;13.70;7.53;;;8.60;99.90;;;;;;5030658;28;20182;-50
2023/03/20 08:00:43;;;;;;;15.80;7.80;;;8.70;99.90;;;;;;5031119;28;20181;-51
2023/03/20 08:03:09;;;;;;;10.70;7.20;;;8.70;99.90;;;;;;5032274;28;20224;-50
2023/03/20 08:05:35;;;;;;;15.23;7.80;;;8.70;99.90;;;;;;5031059;28;20435;-50
2023/03/20 08:08:01;;;;;;;11.57;7.17;;;8.80;99.90;;;;;;5031567;28;20425;-51
2023/03/20 08:10:27;;;;;;;10.60;7.23;;;8.80;99.90;;;;;;5032133;28;20276;-51
2023/03/20 08:12:52;;;;;;;12.55;8.02;;;8.80;99.90;;;;;;5029988;28;20516;-51
2023/03/20 08:15:18;;;;;;;11.87;7.10;;;8.80;99.90;;;;;;5031943;28;20186;-50
2023/03/20 08:17:44;;;;;;;13.63;7.60;;;8.80;55.60;;;;;;5032227;28;20186;-51
2023/03/20 08:20:11;;;;;;;13.70;7.40;;;8.80;1.00;;;;;;5031605;28;20210;-50
2023/03/20 08:22:37;;;;;;;12.87;6.70;;;8.80;1.00;;;;;;5030134;28;20523;-52
2023/03/20 08:25:03;;;;;;;14.43;5.97;;;8.80;1.00;;;;;;5031445;28;20424;-50
2023/03/20 08:27:29;;;;;;;11.13;6.53;;;8.80;1.00;;;;;;5031222;28;20187;-50
2023/03/20 08:29:55;;;;;;;11.50;6.67;;;8.70;1.00;;;;;;5031829;28;20447;-50
2023/03/20 08:32:21;;;;;;;10.80;6.50;;;8.80;1.60;;;;;;5031133;28;20472;-51
2023/03/20 08:34:46;;;;;;;13.47;7.03;;;8.80;10.80;;;;;;5031773;28;20189;-50
2023/03/20 08:37:12;;;;;;;11.40;6.90;;;8.90;1.00;;;;;;5031493;28;20233;-52
2023/03/20 08:39:39;;;;;;;11.63;7.07;;;8.80;1.00;;;;;;5031802;28;20194;-50
2023/03/20 08:42:05;;;;;;;12.83;6.60;;;8.90;1.00;;;;;;5031992;28;20816;-50
2023/03/20 08:44:31;;;;;;;15.70;7.10;;;9.00;1.00;;;;;;5031177;28;20481;-51
2023/03/20 08:46:57;;;;;;;13.13;6.90;;;8.90;1.00;;;;;;5031470;28;20937;-49
2023/03/20 08:49:24;;;;;;;12.20;7.10;;;9.00;1.00;;;;;;5031646;28;20428;-49
2023/03/20 08:51:49;;;;;;;13.60;8.37;;;9.00;1.00;;;;;;5032018;28;20425;-49
2023/03/20 08:54:17;;;;;;;15.30;8.10;;;9.00;1.00;;;;;;5030971;28;20529;-49
2023/03/20 08:56:44;;;;;;;16.83;8.10;;;9.10;1.00;;;;;;5031497;28;20193;-49
2023/03/20 08:59:10;;;;;;;21.20;8.80;;;9.20;1.00;;;;;;5031336;28;20475;-49
2023/03/20 09:01:36;;;;;;;17.60;8.70;;;9.30;1.00;;;;;;5031395;28;20472;-49
2023/03/20 09:04:02;;;;;;;13.40;8.00;;;9.30;99.90;;;;;;5031434;28;20186;-49
2023/03/20 09:06:27;;;;;;;13.87;8.03;;;9.20;99.90;;;;;;5030990;28;20417;-47
2023/03/20 09:08:54;;;;;;;14.60;8.80;;;9.20;99.90;;;;;;5032930;28;20273;-50
2023/03/20 09:11:20;;;;;;;12.43;7.70;;;9.20;99.90;;;;;;5035030;28;20676;-49
2023/03/20 09:13:45;;;;;;;15.43;7.53;;;9.10;99.90;;;;;;5034815;28;20456;-49
2023/03/20 09:16:11;;;;;;;11.80;7.50;;;9.10;99.90;;;;;;5035177;28;20451;-49
2023/03/20 09:18:36;;;;;;;17.23;7.80;;;9.20;80.10;;;;;;5034858;28;20179;-49
2023/03/20 09:21:02;;;;;;;12.50;6.70;;;9.20;1.00;;;;;;5034233;28;20178;-49
2023/03/20 09:23:28;;;;;;;17.37;7.10;;;9.20;81.90;;;;;;5034709;28;20236;-49
2023/03/20 09:25:53;;;;;;;15.93;7.73;;;9.20;96.40;;;;;;5035100;28;21001;-49
2023/03/20 09:28:19;;;;;;;12.63;7.20;;;9.20;99.90;;;;;;5034592;28;20254;-49
2023/03/20 09:30:45;;;;;;;15.90;7.97;;;9.10;1.00;;;;;;5034690;28;20182;-49
2023/03/20 09:33:11;;;;;;;12.17;7.13;;;9.10;1.00;;;;;;5034866;28;20209;-49
2023/03/20 09:35:36;;;;;;;13.07;7.80;;;9.20;1.00;;;;;;5034294;28;20626;-49
2023/03/20 09:38:02;;;;;;;11.50;8.17;;;9.30;1.00;;;;;;5034567;28;20455;-49
2023/03/20 09:40:36;;;;;;;13.23;7.47;;;9.40;1.00;;;;;;5034229;28;20542;-49
2023/03/20 09:43:23;;;;;;;14.50;7.20;;;9.50;99.90;;;;;;5034049;28;20271;-49
2023/03/20 09:45:53;;;;;;;12.03;7.33;;;9.60;99.90;;;;;;5035145;28;20428;-49
2023/03/20 09:48:26;;;;;;;14.50;8.50;;;9.60;1.00;;;;;;5034636;28;20522;-50
2023/03/20 09:51:35;;;;;;;11.60;7.70;;;9.70;1.00;;;;;;5034344;28;20409;-53
2023/03/20 09:54:12;;;;;;;13.33;8.47;;;9.70;1.00;;;;;;5032818;28;20530;-49
2023/03/20 09:56:37;;;;;;;12.90;8.20;;;9.80;99.90;;;;;;5034165;28;20416;-50
2023/03/20 09:59:05;;;;;;;16.97;8.67;;;9.80;1.00;;;;;;5034255;28;20796;-49
2023/03/20 10:01:46;;;;;;;13.63;8.00;;;9.80;1.00;;;;;;5034305;28;20281;-50
2023/03/20 10:04:12;;;;;;;13.70;8.13;;;9.80;99.90;;;;;;5033826;28;20448;-49
2023/03/20 10:06:38;;;;;;;18.93;9.00;;;9.70;99.90;;;;;;5033949;28;20576;-49
2023/03/20 10:09:27;;;;;;;17.00;9.40;;;9.70;99.90;;;;;;5034252;28;20237;-50
2023/03/20 10:12:21;;;;;;;22.40;9.47;;;9.60;99.90;;;;;;5030612;28;20481;-50
2023/03/20 10:14:55;;;;;;;18.40;9.13;;;9.60;1.00;;;;;;5034243;28;20416;-49
2023/03/20 10:17:38;;;;;;;21.30;10.37;;;9.60;1.00;;;;;;5034559;28;20412;-49
2023/03/20 10:20:24;;;;;;;15.53;10.23;;;9.60;99.90;;;;;;5032869;28;20885;-49
2023/03/20 10:22:56;;;;;;;16.03;10.37;;;9.60;99.90;;;;;;5033951;28;20401;-49
2023/03/20 10:25:41;;;;;;;20.53;10.00;;;9.60;1.00;;;;;;5034214;28;20408;-50
2023/03/20 10:28:20;;;;;;;17.07;9.77;;;9.60;99.90;;;;;;5033555;28;20951;-49
2023/03/20 10:31:01;;;;;;;16.73;9.47;;;9.60;99.90;;;;;;5033900;28;20425;-49
2023/03/20 10:33:49;;;;;;;18.17;9.67;;;9.60;1.00;;;;;;5033133;28;20471;-48
2023/03/20 10:36:51;;;;;;;17.63;8.73;;;9.60;99.90;;;;;;5033406;28;20428;-50
2023/03/20 10:39:41;;;;;;;13.27;8.40;;;9.60;99.90;;;;;;5033626;28;20448;-49
2023/03/20 10:42:14;;;;;;;15.73;9.17;;;9.70;1.00;;;;;;5033287;28;20858;-49
2023/03/20 10:44:47;;;;;;;19.87;9.73;;;9.80;1.00;;;;;;5033802;28;20468;-51
2023/03/20 10:47:17;;;;;;;18.57;9.60;;;9.80;1.00;;;;;;5031629;28;20409;-49
2023/03/20 10:49:50;;;;;;;23.00;9.13;;;9.80;1.00;;;;;;5033212;28;20445;-50
2023/03/20 10:52:21;;;;;;;19.90;8.37;;;9.80;1.00;;;;;;5033726;28;20457;-49
2023/03/20 10:55:02;;;;;;;19.23;9.37;;;9.80;1.00;;;;;;5033169;28;20776;-50
2023/03/20 10:57:32;;;;;;;13.60;9.30;;;9.90;99.90;;;;;;5033545;28;20420;-50
2023/03/20 10:59:58;;;;;;;20.00;10.00;;;10.00;1.00;;;;;;5033198;28;20417;-49
2023/03/20 11:02:30;;;;;;;13.10;8.03;;;10.10;1.00;;;;;;5033075;28;20484;-49
2023/03/20 11:04:58;;;;;;;15.47;8.80;;;10.30;35.90;;;;;;5032903;28;20897;-48
2023/03/20 11:07:35;;;;;;;15.23;8.03;;;10.30;6.60;;;;;;5032687;28;20468;-49
2023/03/20 11:10:04;;;;;;;14.60;7.53;;;10.30;1.00;;;;;;5032978;28;20508;-50
2023/03/20 11:12:36;;;;;;;18.30;8.63;;;10.20;1.00;;;;;;5032702;28;20457;-49
2023/03/20 11:15:22;;;;;;;18.63;8.43;;;10.20;1.00;;;;;;5032637;28;20910;-49
2023/03/20 11:18:12;;;;;;;12.10;7.77;;;10.20;1.00;;;;;;5033404;28;20412;-49
2023/03/20 11:20:49;;;;;;;15.47;8.07;;;10.30;1.00;;;;;;5032836;28;20814;-49
2023/03/20 11:23:18;;;;;;;15.20;8.30;;;10.40;1.00;;;;;;5032718;28;20403;-49
2023/03/20 11:26:10;;;;;;;11.00;7.63;;;10.50;1.00;;;;;;5032345;28;20421;-49
2023/03/20 11:28:42;;;;;;;19.37;8.10;;;10.40;1.00;;;;;;5032134;28;20408;-51
2023/03/20 11:31:10;;;;;;;13.07;7.47;;;10.30;1.00;;;;;;5032538;28;20408;-49
2023/03/20 11:33:40;;;;;;;19.17;8.40;;;10.20;1.00;;;;;;5032208;28;20468;-49
2023/03/20 11:36:33;;;;;;;14.57;8.17;;;10.20;1.00;;;;;;5032512;28;20440;-49
2023/03/20 11:39:12;;;;;;;15.77;7.97;;;10.20;1.00;;;;;;5031275;28;20501;-49
2023/03/20 11:41:50;;;;;;;18.53;7.93;;;10.10;1.00;;;;;;5032425;28;21012;-49
2023/03/20 11:44:35;;;;;;;17.97;6.97;;;10.10;1.00;;;;;;5031967;28;20480;-50
2023/03/20 11:47:11;;;;;;;18.67;8.23;;;10.20;1.00;;;;;;5032042;28;20443;-51
2023/03/20 11:49:53;;;;;;;17.60;8.40;;;10.10;1.00;;;;;;5031543;28;20417;-49
2023/03/20 11:52:34;;;;;;;13.00;8.30;;;10.00;1.00;;;;;;5032733;28;20478;-50
2023/03/20 11:55:03;;;;;;;11.43;7.60;;;10.10;1.00;;;;;;5032335;28;20425;-50
2023/03/20 11:57:29;;;;;;;14.40;7.03;;;10.10;1.00;;;;;;5031440;28;20429;-49
2023/03/20 11:59:55;;;;;;;15.10;7.70;;;10.10;1.00;;;;;;5032179;28;20424;-50
2023/03/20 12:02:23;;;;;;;16.13;8.57;;;10.00;1.00;;;;;;5032203;28;20196;-50
2023/03/20 12:04:48;;;;;;;16.37;8.20;;;10.00;1.00;;;;;;5032387;28;20190;-49
2023/03/20 12:07:26;;;;;;;14.13;8.20;;;10.00;1.00;;;;;;5032110;28;20412;-50
2023/03/20 12:10:00;;;;;;;15.43;7.70;;;10.00;1.00;;;;;;5032161;28;20610;-50
2023/03/20 12:12:50;;;;;;;18.87;8.00;;;10.00;1.00;;;;;;5031774;28;20441;-49
2023/03/20 12:15:22;;;;;;;12.70;7.20;;;10.00;1.00;;;;;;5032260;28;20416;-50
2023/03/20 12:17:53;;;;;;;17.60;8.00;;;10.10;1.00;;;;;;5031744;28;20908;-50
2023/03/20 12:20:33;;;;;;;14.17;7.50;;;10.10;1.00;;;;;;5032172;28;20778;-49
2023/03/20 12:23:08;;;;;;;15.97;8.40;;;10.20;1.00;;;;;;5032063;28;20401;-50
2023/03/20 12:25:58;;;;;;;16.20;8.83;;;10.20;1.00;;;;;;5031853;28;20422;-49
2023/03/20 12:28:51;;;;;;;15.10;7.57;;;10.30;1.00;;;;;;5031489;28;20509;-50
2023/03/20 12:31:34;;;;;;;12.97;7.97;;;10.40;1.00;;;;;;5031504;28;20768;-49
2023/03/20 12:34:17;;;;;;;11.07;7.37;;;10.50;1.00;;;;;;5031654;28;20459;-50
2023/03/20 12:36:48;;;;;;;15.93;7.47;;;10.50;1.00;;;;;;5031244;28;21363;-49
2023/03/20 12:39:18;;;;;;;16.17;8.50;;;10.50;1.00;;;;;;5032229;28;20451;-49
2023/03/20 12:41:51;;;;;;;11.47;7.57;;;10.60;1.00;;;;;;5031543;28;20517;-50
2023/03/20 12:44:36;;;;;;;15.47;8.30;;;10.70;1.00;;;;;;5034038;28;20487;-50
2023/03/20 12:47:02;;;;;;;18.23;7.13;;;10.90;1.00;;;;;;5034942;28;21017;-50
2023/03/20 12:50:09;;;;;;;13.47;8.03;;;11.20;1.00;;;;;;5035591;28;20507;-50
2023/03/20 12:52:55;;;;;;;14.03;7.27;;;11.60;1.00;;;;;;5013188;28;20308;-50
2023/03/20 12:55:39;;;;;;;11.90;6.77;;;12.10;1.00;;;;;;5013251;28;20445;-50
2023/03/20 12:58:11;;;;;;;13.30;7.30;;;12.20;1.00;;;;;;5029352;28;20942;-50
2023/03/20 13:01:08;;;;;;;11.17;7.63;;;12.30;1.00;;;;;;5035329;28;20404;-49
2023/03/20 13:04:02;;;;;;;11.93;6.87;;;12.20;1.00;;;;;;5035323;28;20417;-50